Wetterstation Vordersexau
Wetterdaten: Woche 07.05.18 - 13.05.18 (KW19)
Datum Zeit Temp. A. Feuchte A. Luftdruck Regen Wind Richtung Taupunkt Windchill Windben
07.05.2018 00:00 15,9 C 57 % 1014,8 hPa 0,0 l/m 0,0 km/h S 7,4 C 15,9 C 0,0 km/h
07.05.2018 01:00 14,5 C 61 % 1014,5 hPa 0,0 l/m 0,0 km/h O-NO 7,1 C 14,5 C 0,0 km/h
07.05.2018 02:00 13,4 C 63 % 1014,4 hPa 0,0 l/m 0,0 km/h O-NO 6,5 C 13,4 C 0,0 km/h
07.05.2018 03:00 12,1 C 66 % 1014,3 hPa 0,0 l/m 0,0 km/h O-NO 5,9 C 12,1 C 0,0 km/h
07.05.2018 04:00 11,4 C 67 % 1014,0 hPa 0,0 l/m 0,0 km/h O-NO 5,5 C 11,4 C 0,0 km/h
07.05.2018 05:00 10,9 C 70 % 1014,2 hPa 0,0 l/m 0,0 km/h N 5,6 C 10,9 C 0,0 km/h
07.05.2018 06:00 10,3 C 74 % 1014,3 hPa 0,0 l/m 0,0 km/h NO 5,9 C 10,3 C 0,0 km/h
07.05.2018 07:00 12,1 C 73 % 1014,6 hPa 0,0 l/m 0,0 km/h NW 7,4 C 12,1 C 0,0 km/h
07.05.2018 08:00 14,6 C 67 % 1014,5 hPa 0,0 l/m 0,0 km/h W-NW 8,5 C 14,6 C 0,0 km/h
07.05.2018 09:00 16,9 C 64 % 1014,3 hPa 0,0 l/m 0,0 km/h S-SW 10,0 C 16,9 C 0,0 km/h
07.05.2018 10:00 20,4 C 56 % 1013,6 hPa 0,0 l/m 13,0 km/h S 11,3 C 18,2 C 7,2 km/h
07.05.2018 11:00 22,8 C 48 % 1013,0 hPa 0,0 l/m 0,0 km/h W-SW 11,2 C 22,8 C 0,0 km/h
07.05.2018 12:00 24,1 C 42 % 1012,4 hPa 0,0 l/m 6,5 km/h W 10,4 C 24,1 C 3,6 km/h
07.05.2018 13:00 25,1 C 40 % 1011,5 hPa 0,0 l/m 3,9 km/h N-NO 10,5 C 25,1 C 2,2 km/h
07.05.2018 14:00 26,5 C 34 % 1010,9 hPa 0,0 l/m 5,2 km/h O-NO 9,3 C 26,5 C 2,9 km/h
07.05.2018 15:00 26,8 C 32 % 1010,1 hPa 0,0 l/m 18,8 km/h N-NO 8,7 C 25,1 C 10,4 km/h
07.05.2018 16:00 26,6 C 30 % 1009,7 hPa 0,0 l/m 9,1 km/h N-NO 7,6 C 26,1 C 5,0 km/h
07.05.2018 17:00 26,6 C 30 % 1009,5 hPa 0,0 l/m 9,1 km/h NO 7,6 C 26,1 C 5,0 km/h
07.05.2018 18:00 26,5 C 31 % 1009,3 hPa 0,0 l/m 0,0 km/h NO 8,0 C 26,5 C 0,0 km/h
07.05.2018 19:00 24,6 C 34 % 1009,3 hPa 0,0 l/m 0,0 km/h NO 7,7 C 24,6 C 0,0 km/h
07.05.2018 20:00 22,3 C 38 % 1009,6 hPa 0,0 l/m 0,0 km/h O-NO 7,3 C 22,3 C 0,0 km/h
07.05.2018 21:00 19,6 C 44 % 1010,0 hPa 0,0 l/m 0,0 km/h O-NO 7,0 C 19,6 C 0,0 km/h
07.05.2018 22:00 17,9 C 50 % 1009,8 hPa 0,0 l/m 0,0 km/h O-NO 7,3 C 17,9 C 0,0 km/h
07.05.2018 23:00 16,8 C 53 % 1009,6 hPa 0,0 l/m 0,0 km/h NO 7,2 C 16,8 C 0,0 km/h
08.05.2018 00:00 15,8 C 59 % 1009,3 hPa 0,0 l/m 0,0 km/h NO 7,8 C 15,8 C 0,0 km/h
08.05.2018 01:00 14,2 C 63 % 1008,8 hPa 0,0 l/m 0,0 km/h NO 7,3 C 14,2 C 0,0 km/h
08.05.2018 02:00 13,5 C 65 % 1008,5 hPa 0,0 l/m 0,0 km/h O 7,1 C 13,5 C 0,0 km/h
08.05.2018 03:00 13,6 C 64 % 1008,5 hPa 0,0 l/m 0,0 km/h NO 6,9 C 13,6 C 0,0 km/h
08.05.2018 04:00 12,3 C 68 % 1008,4 hPa 0,0 l/m 0,0 km/h O-NO 6,6 C 12,3 C 0,0 km/h
08.05.2018 05:00 11,9 C 70 % 1008,5 hPa 0,0 l/m 0,0 km/h SO 6,6 C 11,9 C 0,0 km/h
08.05.2018 06:00 11,3 C 73 % 1008,4 hPa 0,0 l/m 0,0 km/h NO 6,6 C 11,3 C 0,0 km/h
08.05.2018 07:00 13,9 C 71 % 1008,1 hPa 0,0 l/m 0,0 km/h NW 8,7 C 13,9 C 0,0 km/h
08.05.2018 08:00 15,9 C 66 % 1008,3 hPa 0,0 l/m 0,0 km/h W-SW 9,6 C 15,9 C 0,0 km/h
08.05.2018 09:00 17,7 C 63 % 1008,1 hPa 0,0 l/m 0,0 km/h W-SW 10,6 C 17,7 C 0,0 km/h
08.05.2018 10:00 20,9 C 53 % 1007,5 hPa 0,0 l/m 0,0 km/h W-NW 11,0 C 20,9 C 0,0 km/h
08.05.2018 11:00 22,3 C 49 % 1007,0 hPa 0,0 l/m 0,0 km/h W 11,1 C 22,3 C 0,0 km/h
08.05.2018 12:00 23,3 C 46 % 1006,4 hPa 0,0 l/m 0,0 km/h W-SW 11,0 C 23,3 C 0,0 km/h
08.05.2018 13:00 24,6 C 45 % 1005,6 hPa 0,0 l/m 0,0 km/h W-SW 11,9 C 24,6 C 0,0 km/h
08.05.2018 14:00 25,8 C 44 % 1004,8 hPa 0,0 l/m 0,0 km/h W 12,6 C 25,8 C 0,0 km/h
08.05.2018 15:00 26,5 C 41 % 1004,3 hPa 0,0 l/m 5,8 km/h W-NW 12,2 C 26,5 C 3,2 km/h
08.05.2018 16:00 26,9 C 39 % 1003,6 hPa 0,0 l/m 0,0 km/h N-NW 11,8 C 26,9 C 0,0 km/h
08.05.2018 17:00 27,2 C 39 % 1003,0 hPa 0,0 l/m 11,0 km/h N 12,0 C 26,5 C 6,1 km/h
08.05.2018 18:00 27,8 C 35 % 1002,7 hPa 0,0 l/m 0,0 km/h N 10,9 C 27,8 C 0,0 km/h
08.05.2018 19:00 25,5 C 35 % 1002,6 hPa 0,0 l/m 0,0 km/h NO 8,9 C 25,5 C 0,0 km/h
08.05.2018 20:00 22,8 C 41 % 1003,0 hPa 0,0 l/m 0,0 km/h NO 8,9 C 22,8 C 0,0 km/h
08.05.2018 21:00 19,8 C 45 % 1003,6 hPa 0,0 l/m 0,0 km/h O-NO 7,5 C 19,8 C 0,0 km/h
08.05.2018 22:00 18,3 C 48 % 1003,7 hPa 0,0 l/m 0,0 km/h O-SO 7,1 C 18,3 C 0,0 km/h
08.05.2018 23:00 16,5 C 54 % 1004,4 hPa 0,0 l/m 0,0 km/h O-SO 7,2 C 16,5 C 0,0 km/h
09.05.2018 00:00 15,0 C 57 % 1004,2 hPa 0,0 l/m 0,0 km/h O 6,6 C 15,0 C 0,0 km/h
09.05.2018 01:00 13,5 C 62 % 1004,0 hPa 0,0 l/m 0,0 km/h O-NO 6,4 C 13,5 C 0,0 km/h
09.05.2018 02:00 13,0 C 63 % 1003,9 hPa 0,0 l/m 0,0 km/h O 6,1 C 13,0 C 0,0 km/h
09.05.2018 03:00 12,3 C 64 % 1004,1 hPa 0,0 l/m 0,0 km/h NO 5,7 C 12,3 C 0,0 km/h
09.05.2018 04:00 11,4 C 68 % 1004,1 hPa 0,0 l/m 0,0 km/h O-NO 5,7 C 11,4 C 0,0 km/h
09.05.2018 05:00 11,1 C 69 % 1004,2 hPa 0,0 l/m 0,0 km/h O-NO 5,6 C 11,1 C 0,0 km/h
09.05.2018 06:00 11,0 C 71 % 1004,2 hPa 0,0 l/m 0,0 km/h O-NO 5,9 C 11,0 C 0,0 km/h
09.05.2018 07:00 12,6 C 70 % 1004,6 hPa 0,0 l/m 0,0 km/h O-NO 7,3 C 12,6 C 0,0 km/h
09.05.2018 08:00 15,4 C 68 % 1004,9 hPa 0,0 l/m 0,0 km/h NW 9,5 C 15,4 C 0,0 km/h
09.05.2018 09:00 17,3 C 60 % 1005,2 hPa 0,0 l/m 0,0 km/h SW 9,5 C 17,3 C 0,0 km/h
09.05.2018 10:00 19,9 C 59 % 1005,0 hPa 0,0 l/m 0,0 km/h W-SW 11,6 C 19,9 C 0,0 km/h
09.05.2018 11:00 22,3 C 53 % 1004,6 hPa 0,0 l/m 0,0 km/h W-SW 12,2 C 22,3 C 0,0 km/h
09.05.2018 12:00 23,5 C 48 % 1004,2 hPa 0,0 l/m 0,0 km/h N 11,8 C 23,5 C 0,0 km/h
09.05.2018 13:00 22,5 C 51 % 1004,1 hPa 0,0 l/m 0,0 km/h N-NW 11,8 C 22,5 C 0,0 km/h
09.05.2018 14:00 23,3 C 50 % 1003,3 hPa 0,0 l/m 0,0 km/h W 12,3 C 23,3 C 0,0 km/h
09.05.2018 15:00 25,4 C 43 % 1002,5 hPa 0,0 l/m 0,0 km/h N-NO 11,9 C 25,4 C 0,0 km/h
09.05.2018 16:00 24,9 C 41 % 1002,2 hPa 0,0 l/m 0,0 km/h O-NO 10,7 C 24,9 C 0,0 km/h
09.05.2018 17:00 21,8 C 51 % 1002,5 hPa 0,0 l/m 0,0 km/h NO 11,2 C 21,8 C 0,0 km/h
09.05.2018 18:00 22,1 C 52 % 1002,4 hPa 0,0 l/m 0,0 km/h SO 11,8 C 22,1 C 0,0 km/h
09.05.2018 19:00 21,3 C 55 % 1002,6 hPa 0,0 l/m 0,0 km/h O-SO 11,9 C 21,3 C 0,0 km/h
09.05.2018 20:00 19,5 C 60 % 1002,7 hPa 0,0 l/m 0,0 km/h O-NO 11,5 C 19,5 C 0,0 km/h
09.05.2018 21:00 17,3 C 67 % 1003,1 hPa 0,0 l/m 0,0 km/h O-SO 11,1 C 17,3 C 0,0 km/h
09.05.2018 22:00 16,1 C 67 % 1003,4 hPa 0,0 l/m 0,0 km/h SO 10,0 C 16,1 C 0,0 km/h
09.05.2018 23:00 15,2 C 69 % 1003,8 hPa 0,0 l/m 0,0 km/h SO 9,6 C 15,2 C 0,0 km/h
10.05.2018 00:00 14,6 C 71 % 1003,5 hPa 0,0 l/m 0,0 km/h O-NO 9,4 C 14,6 C 0,0 km/h
10.05.2018 01:00 13,9 C 73 % 1003,6 hPa 0,0 l/m 0,0 km/h O-NO 9,1 C 13,9 C 0,0 km/h
10.05.2018 02:00 13,2 C 75 % 1003,5 hPa 0,0 l/m 0,0 km/h O-NO 8,9 C 13,2 C 0,0 km/h
10.05.2018 03:00 12,4 C 79 % 1003,8 hPa 0,0 l/m 0,0 km/h O 8,9 C 12,4 C 0,0 km/h
10.05.2018 04:00 12,1 C 80 % 1004,4 hPa 0,0 l/m 0,0 km/h O-NO 8,8 C 12,1 C 0,0 km/h
10.05.2018 05:00 12,3 C 81 % 1004,9 hPa 0,0 l/m 0,0 km/h S-SW 9,1 C 12,3 C 0,0 km/h
10.05.2018 06:00 14,3 C 81 % 1005,5 hPa 1,0 l/m 14,3 km/h SW 11,1 C 10,6 C 7,9 km/h
10.05.2018 07:00 13,9 C 83 % 1006,5 hPa 0,0 l/m 5,8 km/h W-SW 11,1 C 13,9 C 3,2 km/h
10.05.2018 08:00 13,3 C 83 % 1007,3 hPa 3,1 l/m 0,0 km/h S-SO 10,5 C 13,3 C 0,0 km/h
10.05.2018 09:00 13,4 C 83 % 1008,0 hPa 1,0 l/m 0,0 km/h SO 10,6 C 13,4 C 0,0 km/h
10.05.2018 10:00 13,3 C 82 % 1008,4 hPa 1,0 l/m 0,0 km/h W-SW 10,3 C 13,3 C 0,0 km/h
10.05.2018 11:00 13,3 C 80 % 1009,2 hPa 6,2 l/m 0,0 km/h W-SW 9,9 C 13,3 C 0,0 km/h
10.05.2018 12:00 13,5 C 74 % 1010,0 hPa 3,1 l/m 13,0 km/h NW 9,0 C 10,1 C 7,2 km/h
10.05.2018 13:00 12,2 C 76 % 1011,4 hPa 3,6 l/m 0,0 km/h N-NO 8,1 C 12,2 C 0,0 km/h
10.05.2018 14:00 11,4 C 80 % 1012,8 hPa 0,5 l/m 0,0 km/h N-NW 8,1 C 11,4 C 0,0 km/h
10.05.2018 15:00 10,3 C 82 % 1013,9 hPa 1,0 l/m 0,0 km/h SO 7,4 C 10,3 C 0,0 km/h
10.05.2018 16:00 11,7 C 82 % 1014,7 hPa 0,0 l/m 0,0 km/h SO 8,7 C 11,7 C 0,0 km/h
10.05.2018 17:00 12,5 C 83 % 1014,9 hPa 0,0 l/m 0,0 km/h SO 9,7 C 12,5 C 0,0 km/h
10.05.2018 18:00 11,9 C 84 % 1015,2 hPa 0,0 l/m 0,0 km/h SO 9,3 C 11,9 C 0,0 km/h
10.05.2018 19:00 11,9 C 84 % 1015,9 hPa 0,0 l/m 0,0 km/h O-SO 9,3 C 11,9 C 0,0 km/h
10.05.2018 20:00 11,6 C 84 % 1016,7 hPa 0,0 l/m 0,0 km/h O-SO 9,0 C 11,6 C 0,0 km/h
10.05.2018 21:00 10,6 C 84 % 1017,4 hPa 0,0 l/m 0,0 km/h O-SO 8,0 C 10,6 C 0,0 km/h
10.05.2018 22:00 10,1 C 83 % 1017,9 hPa 0,0 l/m 0,0 km/h O-NO 7,3 C 10,1 C 0,0 km/h
10.05.2018 23:00 9,5 C 82 % 1018,1 hPa 0,0 l/m 0,0 km/h O-NO 6,6 C 9,5 C 0,0 km/h
11.05.2018 00:00 8,9 C 81 % 1017,8 hPa 0,0 l/m 0,0 km/h O-NO 5,8 C 8,9 C 0,0 km/h
11.05.2018 01:00 9,1 C 81 % 1017,5 hPa 0,0 l/m 0,0 km/h O-NO 6,0 C 9,1 C 0,0 km/h
11.05.2018 02:00 9,0 C 81 % 1017,5 hPa 0,0 l/m 0,0 km/h O-NO 5,9 C 9,0 C 0,0 km/h
11.05.2018 03:00 8,8 C 81 % 1017,3 hPa 0,0 l/m 0,0 km/h O 5,7 C 8,8 C 0,0 km/h
11.05.2018 04:00 8,4 C 82 % 1016,7 hPa 0,0 l/m 0,0 km/h S-SO 5,5 C 8,4 C 0,0 km/h
11.05.2018 05:00 7,9 C 81 % 1016,4 hPa 0,0 l/m 0,0 km/h SO 4,8 C 7,9 C 0,0 km/h
11.05.2018 06:00 7,9 C 81 % 1016,6 hPa 0,0 l/m 0,0 km/h SO 4,8 C 7,9 C 0,0 km/h
11.05.2018 07:00 9,5 C 80 % 1016,7 hPa 0,0 l/m 0,0 km/h O 6,2 C 9,5 C 0,0 km/h
11.05.2018 08:00 11,7 C 84 % 1016,3 hPa 0,0 l/m 0,0 km/h W 9,1 C 11,7 C 0,0 km/h
11.05.2018 09:00 13,3 C 84 % 1015,8 hPa 0,0 l/m 0,0 km/h W-NW 10,7 C 13,3 C 0,0 km/h
11.05.2018 10:00 15,6 C 80 % 1015,4 hPa 0,0 l/m 0,0 km/h W 12,2 C 15,6 C 0,0 km/h
11.05.2018 11:00 17,4 C 73 % 1015,0 hPa 0,0 l/m 0,0 km/h N 12,5 C 17,4 C 0,0 km/h
11.05.2018 12:00 19,2 C 64 % 1014,7 hPa 0,0 l/m 18,8 km/h W-SW 12,2 C 15,4 C 10,4 km/h
11.05.2018 13:00 19,9 C 63 % 1013,9 hPa 0,0 l/m 0,0 km/h N-NW 12,6 C 19,9 C 0,0 km/h
11.05.2018 14:00 20,8 C 59 % 1013,3 hPa 0,0 l/m 0,0 km/h SW 12,5 C 20,8 C 0,0 km/h
11.05.2018 15:00 21,4 C 57 % 1012,7 hPa 0,0 l/m 1,9 km/h W-NW 12,5 C 21,4 C 1,1 km/h
11.05.2018 16:00 22,3 C 55 % 1012,4 hPa 0,0 l/m 0,0 km/h W-SW 12,8 C 22,3 C 0,0 km/h
11.05.2018 17:00 21,8 C 57 % 1012,4 hPa 0,0 l/m 0,0 km/h N 12,9 C 21,8 C 0,0 km/h
11.05.2018 18:00 22,2 C 55 % 1012,3 hPa 0,0 l/m 0,0 km/h N 12,7 C 22,2 C 0,0 km/h
11.05.2018 19:00 20,7 C 60 % 1012,1 hPa 0,0 l/m 0,0 km/h N 12,7 C 20,7 C 0,0 km/h
11.05.2018 20:00 18,6 C 67 % 1012,4 hPa 0,0 l/m 0,0 km/h N-NO 12,3 C 18,6 C 0,0 km/h
11.05.2018 21:00 16,0 C 76 % 1012,9 hPa 0,0 l/m 0,0 km/h N-NO 11,8 C 16,0 C 0,0 km/h
11.05.2018 22:00 14,4 C 80 % 1013,5 hPa 0,0 l/m 0,0 km/h N-NO 11,0 C 14,4 C 0,0 km/h
11.05.2018 23:00 13,6 C 82 % 1013,7 hPa 0,0 l/m 0,0 km/h O 10,6 C 13,6 C 0,0 km/h
12.05.2018 00:00 12,9 C 83 % 1013,5 hPa 0,0 l/m 0,0 km/h O-NO 10,1 C 12,9 C 0,0 km/h
12.05.2018 01:00 12,2 C 84 % 1013,1 hPa 0,0 l/m 0,0 km/h O-NO 9,6 C 12,2 C 0,0 km/h
12.05.2018 02:00 11,6 C 83 % 1012,8 hPa 0,0 l/m 0,0 km/h O-NO 8,8 C 11,6 C 0,0 km/h
12.05.2018 03:00 11,1 C 84 % 1013,3 hPa 0,0 l/m 0,0 km/h O-NO 8,5 C 11,1 C 0,0 km/h
12.05.2018 04:00 10,7 C 84 % 1013,3 hPa 0,0 l/m 0,0 km/h NO 8,1 C 10,7 C 0,0 km/h
12.05.2018 05:00 10,4 C 83 % 1013,1 hPa 0,0 l/m 0,0 km/h O-NO 7,6 C 10,4 C 0,0 km/h
12.05.2018 06:00 10,9 C 83 % 1013,4 hPa 0,0 l/m 0,0 km/h O-NO 8,1 C 10,9 C 0,0 km/h
12.05.2018 07:00 12,1 C 83 % 1013,8 hPa 0,0 l/m 0,0 km/h SO 9,3 C 12,1 C 0,0 km/h
12.05.2018 08:00 15,3 C 84 % 1013,3 hPa 0,0 l/m 0,0 km/h NO 12,6 C 15,3 C 0,0 km/h
12.05.2018 09:00 17,1 C 79 % 1012,8 hPa 0,0 l/m 0,0 km/h NW 13,4 C 17,1 C 0,0 km/h
12.05.2018 10:00 19,8 C 72 % 1012,0 hPa 0,0 l/m 0,0 km/h W 14,6 C 19,8 C 0,0 km/h
12.05.2018 11:00 21,5 C 63 % 1011,5 hPa 0,0 l/m 0,0 km/h W 14,2 C 21,5 C 0,0 km/h
12.05.2018 12:00 22,6 C 58 % 1010,8 hPa 0,0 l/m 0,0 km/h NW 13,9 C 22,6 C 0,0 km/h
12.05.2018 13:00 23,3 C 57 % 1009,8 hPa 0,0 l/m 0,0 km/h W 14,3 C 23,3 C 0,0 km/h
12.05.2018 14:00 24,3 C 55 % 1009,2 hPa 0,0 l/m 0,0 km/h W-NW 14,7 C 24,3 C 0,0 km/h
12.05.2018 15:00 24,1 C 53 % 1008,6 hPa 0,0 l/m 0,0 km/h N-NW 13,9 C 24,1 C 0,0 km/h
12.05.2018 16:00 25,2 C 53 % 1008,1 hPa 0,0 l/m 0,0 km/h W-NW 14,9 C 25,2 C 0,0 km/h
12.05.2018 17:00 25,1 C 56 % 1007,6 hPa 0,0 l/m 0,0 km/h N 15,7 C 25,1 C 0,0 km/h
12.05.2018 18:00 23,9 C 59 % 1007,2 hPa 0,0 l/m 0,0 km/h NO 15,4 C 23,9 C 0,0 km/h
12.05.2018 19:00 22,9 C 63 % 1006,6 hPa 0,0 l/m 0,0 km/h NO 15,5 C 22,9 C 0,0 km/h
12.05.2018 20:00 20,6 C 70 % 1006,8 hPa 0,0 l/m 0,0 km/h NO 14,9 C 20,6 C 0,0 km/h
12.05.2018 21:00 18,8 C 77 % 1007,0 hPa 0,0 l/m 0,0 km/h O-NO 14,7 C 18,8 C 0,0 km/h
12.05.2018 22:00 17,8 C 81 % 1007,2 hPa 0,0 l/m 0,0 km/h O 14,5 C 17,8 C 0,0 km/h
12.05.2018 23:00 17,4 C 82 % 1007,2 hPa 0,0 l/m 0,0 km/h SW 14,3 C 17,4 C 0,0 km/h
13.05.2018 00:00 16,9 C 82 % 1007,3 hPa 0,0 l/m 0,0 km/h SW 13,8 C 16,9 C 0,0 km/h
13.05.2018 01:00 17,4 C 68 % 1008,7 hPa 0,0 l/m 20,7 km/h S 11,4 C 12,7 C 11,5 km/h
13.05.2018 02:00 15,9 C 75 % 1008,6 hPa 0,0 l/m 0,0 km/h N 11,5 C 15,9 C 0,0 km/h
13.05.2018 03:00 15,9 C 75 % 1008,7 hPa 0,0 l/m 0,0 km/h S-SW 11,5 C 15,9 C 0,0 km/h
13.05.2018 04:00 15,2 C 78 % 1008,6 hPa 0,0 l/m 0,0 km/h SW 11,4 C 15,2 C 0,0 km/h
13.05.2018 05:00 14,7 C 82 % 1008,8 hPa 0,0 l/m 0,0 km/h SW 11,7 C 14,7 C 0,0 km/h
13.05.2018 06:00 13,7 C 82 % 1009,3 hPa 0,0 l/m 0,0 km/h W-SW 10,7 C 13,7 C 0,0 km/h
13.05.2018 07:00 12,9 C 83 % 1009,5 hPa 0,0 l/m 0,0 km/h SW 10,1 C 12,9 C 0,0 km/h
13.05.2018 08:00 13,1 C 82 % 1009,4 hPa 0,0 l/m 0,0 km/h W-SW 10,1 C 13,1 C 0,0 km/h
13.05.2018 09:00 12,2 C 82 % 1009,9 hPa 0,0 l/m 0,0 km/h W-SW 9,2 C 12,2 C 0,0 km/h
13.05.2018 10:00 11,5 C 83 % 1010,1 hPa 0,0 l/m 0,0 km/h W-SW 8,7 C 11,5 C 0,0 km/h
13.05.2018 11:00 11,1 C 84 % 1010,1 hPa 0,0 l/m 0,0 km/h S-SO 8,5 C 11,1 C 0,0 km/h
13.05.2018 12:00 10,9 C 84 % 1009,8 hPa 0,0 l/m 0,0 km/h W 8,3 C 10,9 C 0,0 km/h
13.05.2018 13:00 11,0 C 84 % 1009,6 hPa 0,0 l/m 0,0 km/h W 8,4 C 11,0 C 0,0 km/h
13.05.2018 14:00 11,1 C 84 % 1009,4 hPa 0,0 l/m 0,0 km/h W-SW 8,5 C 11,1 C 0,0 km/h
13.05.2018 15:00 11,3 C 84 % 1008,7 hPa 0,0 l/m 0,0 km/h SW 8,7 C 11,3 C 0,0 km/h
13.05.2018 16:00 11,3 C 84 % 1008,1 hPa 0,0 l/m 0,0 km/h N-NW 8,7 C 11,3 C 0,0 km/h
13.05.2018 17:00 11,3 C 84 % 1007,6 hPa 0,0 l/m 0,0 km/h W-NW 8,7 C 11,3 C 0,0 km/h
13.05.2018 18:00 11,5 C 84 % 1007,4 hPa 0,0 l/m 0,0 km/h W-NW 8,9 C 11,5 C 0,0 km/h
13.05.2018 19:00 11,3 C 84 % 1007,7 hPa 0,0 l/m 0,0 km/h N-NW 8,7 C 11,3 C 0,0 km/h
13.05.2018 20:00 10,8 C 83 % 1007,3 hPa 0,5 l/m 0,0 km/h W-SW 8,0 C 10,8 C 0,0 km/h
13.05.2018 21:00 10,6 C 82 % 1007,4 hPa 0,5 l/m 0,0 km/h W-SW 7,7 C 10,6 C 0,0 km/h
13.05.2018 22:00 10,5 C 81 % 1007,3 hPa 0,0 l/m 0,0 km/h W-SW 7,4 C 10,5 C 0,0 km/h
13.05.2018 23:00 10,4 C 81 % 1007,5 hPa 3,1 l/m 0,0 km/h W-SW 7,3 C 10,4 C 0,0 km/h
Min-Datum _ 11.05.18 07.05.18 09.05.18 - 07.05.18 - 11.05.18 11.05.18 07.05.18
_ Min-Zeit 05:53 16:53 16:53 - 00:53 - 05:53 05:53 00:53
Minimum _ 7,9 C 30 % 1002,2 hPa - 0,0 km/h - 4,8 C 7,9 C 0,0 km/h
Max-Datum _ 08.05.18 10.05.18 10.05.18 10.05.18 13.05.18 - 12.05.18 08.05.18 13.05.18
_ Max-Zeit 18:53 18:53 23:53 11:53 01:53 - 17:53 18:53 01:53
Maximum _ 27,8 C 84 % 1018,1 hPa 6,2 l/m 20,7 km/h
S
- 15,7 C 27,8 C 11,5 km/h
S
Durchschnitt _ 16,3 C 67 % 1009,5 hPa #24,9 l/m 0,9 km/h O-NO 9,7 C 16,2 C 0,5 km/h
www.sexauwetter.de